Time;durP1;ratioP1;P1;durP2;ratioP2;P2;SDS_P1;SDS_P2;PMS_P1;PMS_P2;Temp;Humidity;BMP_temperature;BMP_pressure;BME280_temperature;BME280_humidity;BME280_pressure;Samples;Min_cycle;Max_cycle;Signal;HPM_P1;HPM_P2
2024/02/02 00:01:18;;;;;;;9.15;1.50;;;;;;;;;;5018830;28;20029;-56
2024/02/02 00:03:43;;;;;;;14.27;1.48;;;;;;;;;;5022059;28;20477;-55
2024/02/02 00:06:08;;;;;;;14.02;1.83;;;;;;;;;;5028481;28;20061;-56
2024/02/02 00:08:34;;;;;;;6.68;1.27;;;;;;;;;;5028984;28;20041;-56
2024/02/02 00:10:59;;;;;;;11.20;1.40;;;;;;;;;;5027041;28;20022;-56
2024/02/02 00:13:24;;;;;;;14.57;2.10;;;;;;;;;;5030981;28;20490;-57
2024/02/02 00:15:49;;;;;;;12.27;1.77;;;;;;;;;;5027249;28;20455;-60
2024/02/02 00:18:15;;;;;;;10.63;1.60;;;;;;;;;;5029197;28;20025;-57
2024/02/02 00:20:40;;;;;;;12.13;1.80;;;;;;;;;;5025911;28;20504;-57
2024/02/02 00:23:05;;;;;;;9.57;1.40;;;;;;;;;;5028476;28;20448;-56
2024/02/02 00:25:30;;;;;;;11.90;2.27;;;;;;;;;;5031232;28;20033;-56
2024/02/02 00:27:55;;;;;;;13.23;1.77;;;;;;;;;;5015972;28;20436;-56
2024/02/02 00:30:21;;;;;;;11.38;1.42;;;;;;;;;;5020666;28;20105;-57
2024/02/02 00:32:46;;;;;;;14.27;1.83;;;;;;;;;;5020008;28;20045;-55
2024/02/02 00:35:16;;;;;;;9.25;1.20;;;;;;;;;;5028642;28;20028;-58
2024/02/02 00:37:42;;;;;;;11.13;1.45;;;;;;;;;;5030610;28;20060;-58
2024/02/02 00:40:08;;;;;;;12.98;2.35;;;;;;;;;;5030941;28;20041;-56
2024/02/02 00:42:33;;;;;;;;;;;;;;;;;;5031366;28;20026;-56
2024/02/02 00:45:00;;;;;;;11.18;1.58;;;;;;;;;;5030108;28;19955;-57
2024/02/02 00:47:25;;;;;;;13.57;1.85;;;;;;;;;;5030205;28;20020;-57
2024/02/02 00:49:50;;;;;;;12.70;1.70;;;;;;;;;;5028095;28;20021;-57
2024/02/02 00:52:16;;;;;;;13.67;1.77;;;;;;;;;;5017434;28;20026;-57
2024/02/02 00:54:41;;;;;;;14.65;2.22;;;;;;;;;;5021703;28;20029;-56
2024/02/02 00:57:06;;;;;;;12.40;2.13;;;;;;;;;;5023974;28;20175;-56
2024/02/02 00:59:31;;;;;;;8.83;1.50;;;;;;;;;;5031742;28;20461;-56
2024/02/02 01:01:56;;;;;;;13.47;1.90;;;;;;;;;;5031257;28;20048;-57
2024/02/02 01:04:22;;;;;;;15.87;1.80;;;;;;;;;;5033047;28;20025;-57
2024/02/02 01:06:47;;;;;;;9.77;1.27;;;;;;;;;;5015075;28;20029;-56
2024/02/02 01:09:12;;;;;;;8.77;1.27;;;;;;;;;;5017185;28;20835;-57
2024/02/02 01:11:37;;;;;;;12.95;1.65;;;;;;;;;;5020635;28;20022;-56
2024/02/02 01:14:02;;;;;;;11.63;1.60;;;;;;;;;;5018380;28;20040;-58
2024/02/02 01:16:27;;;;;;;11.65;1.40;;;;;;;;;;5031947;28;20021;-57
2024/02/02 01:18:53;;;;;;;10.15;1.45;;;;;;;;;;5029192;28;20042;-57
2024/02/02 01:21:18;;;;;;;12.95;1.98;;;;;;;;;;5023383;28;20045;-56
2024/02/02 01:23:43;;;;;;;13.40;1.63;;;;;;;;;;5022150;28;20052;-57
2024/02/02 01:26:08;;;;;;;13.68;1.75;;;;;;;;;;5032135;28;20452;-55
2024/02/02 01:28:33;;;;;;;12.88;1.70;;;;;;;;;;5032484;28;20040;-56
2024/02/02 01:30:59;;;;;;;11.63;1.60;;;;;;;;;;5024334;28;20033;-56
2024/02/02 01:33:24;;;;;;;12.57;1.58;;;;;;;;;;5032365;28;20041;-56
2024/02/02 01:35:49;;;;;;;11.73;1.42;;;;;;;;;;5023711;28;20490;-58
2024/02/02 01:38:15;;;;;;;11.25;1.48;;;;;;;;;;5013887;28;20490;-58
2024/02/02 01:40:41;;;;;;;14.73;1.88;;;;;;;;;;5017641;28;20103;-57
2024/02/02 01:43:06;;;;;;;14.63;1.45;;;;;;;;;;5027911;28;20505;-56
2024/02/02 01:45:32;;;;;;;13.20;1.77;;;;;;;;;;5025123;28;20044;-56
2024/02/02 01:47:58;;;;;;;11.85;1.55;;;;;;;;;;5024069;28;20108;-56
2024/02/02 01:50:23;;;;;;;12.33;1.53;;;;;;;;;;5019084;28;20448;-57
2024/02/02 01:52:48;;;;;;;11.03;1.67;;;;;;;;;;5029742;28;20024;-57
2024/02/02 01:55:13;;;;;;;13.37;1.80;;;;;;;;;;5032532;28;20075;-57
2024/02/02 01:57:39;;;;;;;12.45;1.63;;;;;;;;;;5031406;28;20429;-56
2024/02/02 02:00:04;;;;;;;15.13;2.13;;;;;;;;;;5030045;28;20021;-57
2024/02/02 02:02:29;;;;;;;15.43;2.08;;;;;;;;;;5025093;28;20091;-56
2024/02/02 02:04:54;;;;;;;13.25;1.83;;;;;;;;;;5019305;28;20470;-57
2024/02/02 02:07:20;;;;;;;12.57;2.03;;;;;;;;;;5023786;28;20029;-57
2024/02/02 02:09:45;;;;;;;9.33;1.30;;;;;;;;;;5021020;28;20490;-57
2024/02/02 02:12:11;;;;;;;12.40;1.67;;;;;;;;;;5028702;28;20440;-56
2024/02/02 02:14:36;;;;;;;13.20;1.60;;;;;;;;;;5025181;28;20083;-56
2024/02/02 02:17:01;;;;;;;12.32;1.90;;;;;;;;;;5019112;28;20069;-56
2024/02/02 02:19:26;;;;;;;14.38;1.88;;;;;;;;;;5028231;28;20505;-58
2024/02/02 02:21:51;;;;;;;17.23;1.83;;;;;;;;;;5034924;28;20030;-56
2024/02/02 02:24:17;;;;;;;14.70;1.42;;;;;;;;;;5041963;28;20060;-57
2024/02/02 02:26:44;;;;;;;11.95;1.52;;;;;;;;;;5047276;28;20017;-57
2024/02/02 02:29:09;;;;;;;11.40;1.58;;;;;;;;;;5047836;28;20079;-57
2024/02/02 02:31:35;;;;;;;9.23;1.40;;;;;;;;;;5046925;28;20013;-57
2024/02/02 02:34:00;;;;;;;11.93;1.35;;;;;;;;;;5035193;28;20452;-57
2024/02/02 02:36:26;;;;;;;14.30;1.80;;;;;;;;;;5050262;28;20017;-58
2024/02/02 02:38:51;;;;;;;10.95;1.67;;;;;;;;;;5048047;28;20021;-58
2024/02/02 02:41:17;;;;;;;14.27;2.00;;;;;;;;;;5033792;28;20106;-58
2024/02/02 02:43:42;;;;;;;10.17;2.33;;;;;;;;;;5032971;28;20481;-57
2024/02/02 02:46:07;;;;;;;10.10;1.60;;;;;;;;;;5033196;28;20108;-57
2024/02/02 02:48:33;;;;;;;8.93;1.83;;;;;;;;;;5033263;28;20025;-57
2024/02/02 02:50:58;;;;;;;16.33;1.95;;;;;;;;;;5032383;28;20018;-57
2024/02/02 02:53:23;;;;;;;13.52;2.17;;;;;;;;;;5032612;28;20021;-57
2024/02/02 02:55:48;;;;;;;19.53;2.20;;;;;;;;;;5031635;28;20100;-57
2024/02/02 02:58:14;;;;;;;12.83;1.87;;;;;;;;;;5032761;28;20060;-57
2024/02/02 03:00:39;;;;;;;12.87;1.67;;;;;;;;;;5033129;28;20022;-57
2024/02/02 03:03:04;;;;;;;12.73;1.70;;;;;;;;;;5032462;28;20048;-56
2024/02/02 03:05:29;;;;;;;10.40;1.33;;;;;;;;;;5032850;28;20048;-56
2024/02/02 03:07:55;;;;;;;11.73;2.17;;;;;;;;;;5032581;28;20029;-56
2024/02/02 03:10:25;;;;;;;13.45;1.90;;;;;;;;;;5030439;28;20393;-57
2024/02/02 03:12:53;;;;;;;11.80;1.80;;;;;;;;;;5032251;28;20037;-57
2024/02/02 03:15:18;;;;;;;14.23;2.15;;;;;;;;;;5034361;28;20134;-57
2024/02/02 03:17:44;;;;;;;17.08;2.20;;;;;;;;;;5033182;28;20129;-56
2024/02/02 03:20:11;;;;;;;12.63;2.00;;;;;;;;;;5030059;28;20030;-56
2024/02/02 03:22:36;;;;;;;;;;;;;;;;;;5029759;28;20467;-55
2024/02/02 03:25:01;;;;;;;13.85;2.05;;;;;;;;;;5029883;28;19913;-57
2024/02/02 03:27:27;;;;;;;11.43;1.70;;;;;;;;;;5031737;28;20080;-56
2024/02/02 03:29:52;;;;;;;13.73;2.25;;;;;;;;;;5033365;28;20082;-57
2024/02/02 03:32:17;;;;;;;11.85;2.47;;;;;;;;;;5025031;28;20059;-56
2024/02/02 03:34:42;;;;;;;13.70;2.10;;;;;;;;;;5030106;28;20079;-57
2024/02/02 03:37:07;;;;;;;17.50;3.17;;;;;;;;;;5030892;28;20032;-57
2024/02/02 03:39:32;;;;;;;11.65;2.63;;;;;;;;;;5028295;28;20053;-57
2024/02/02 03:41:58;;;;;;;16.23;2.33;;;;;;;;;;5033071;28;20025;-57
2024/02/02 03:44:23;;;;;;;14.95;2.00;;;;;;;;;;5028683;28;20072;-56
2024/02/02 03:46:48;;;;;;;16.30;2.97;;;;;;;;;;5021539;28;20021;-56
2024/02/02 03:49:13;;;;;;;14.52;3.00;;;;;;;;;;5031050;28;20485;-56
2024/02/02 03:51:38;;;;;;;19.63;2.95;;;;;;;;;;5033146;28;20072;-56
2024/02/02 03:54:04;;;;;;;15.75;2.58;;;;;;;;;;5030082;28;20053;-57
2024/02/02 03:56:30;;;;;;;10.52;2.40;;;;;;;;;;5016673;28;20497;-58
2024/02/02 03:58:55;;;;;;;15.50;2.53;;;;;;;;;;5018981;28;20126;-57
2024/02/02 04:01:20;;;;;;;17.38;3.10;;;;;;;;;;5032219;28;20536;-56
2024/02/02 04:03:46;;;;;;;13.03;2.30;;;;;;;;;;5028021;28;20052;-57
2024/02/02 04:06:11;;;;;;;11.15;2.60;;;;;;;;;;5031148;28;20013;-57
2024/02/02 04:08:36;;;;;;;13.83;2.73;;;;;;;;;;5030301;28;20025;-56
2024/02/02 04:11:01;;;;;;;17.67;3.00;;;;;;;;;;5029492;28;20021;-57
2024/02/02 04:13:26;;;;;;;14.23;3.00;;;;;;;;;;5031511;28;20021;-58
2024/02/02 04:15:52;;;;;;;14.07;2.40;;;;;;;;;;5031356;28;20088;-57
2024/02/02 04:18:17;;;;;;;10.77;2.97;;;;;;;;;;5031248;28;20037;-58
2024/02/02 04:20:42;;;;;;;13.40;2.72;;;;;;;;;;5028436;28;20195;-56
2024/02/02 04:23:07;;;;;;;14.48;3.20;;;;;;;;;;5029511;28;20033;-57
2024/02/02 04:25:32;;;;;;;13.73;3.10;;;;;;;;;;5030356;28;20041;-56
2024/02/02 04:27:57;;;;;;;12.27;2.60;;;;;;;;;;5031669;28;20021;-57
2024/02/02 04:30:23;;;;;;;15.60;3.15;;;;;;;;;;5031995;28;20017;-58
2024/02/02 04:32:48;;;;;;;15.83;3.30;;;;;;;;;;5030302;28;20079;-58
2024/02/02 04:35:13;;;;;;;13.80;2.75;;;;;;;;;;5022385;28;20052;-58
2024/02/02 04:37:38;;;;;;;13.50;3.07;;;;;;;;;;5031188;28;20394;-57
2024/02/02 04:40:05;;;;;;;16.90;3.58;;;;;;;;;;5029261;28;20040;-57
2024/02/02 04:42:30;;;;;;;16.75;3.05;;;;;;;;;;5033504;28;20101;-57
2024/02/02 04:44:55;;;;;;;16.55;3.60;;;;;;;;;;5034512;28;20455;-57
2024/02/02 04:47:22;;;;;;;15.57;3.17;;;;;;;;;;5034577;28;20022;-57
2024/02/02 04:49:47;;;;;;;12.20;3.25;;;;;;;;;;5034778;28;20416;-57
2024/02/02 04:52:13;;;;;;;13.50;3.65;;;;;;;;;;5033503;28;20051;-57
2024/02/02 04:54:38;;;;;;;16.13;3.75;;;;;;;;;;5034217;28;20029;-57
2024/02/02 04:57:04;;;;;;;14.63;3.25;;;;;;;;;;5033462;28;20453;-57
2024/02/02 04:59:29;;;;;;;19.67;3.80;;;;;;;;;;5034464;28;20093;-56
2024/02/02 05:01:54;;;;;;;14.25;3.80;;;;;;;;;;5029525;28;20013;-57
2024/02/02 05:04:19;;;;;;;14.83;3.90;;;;;;;;;;5018561;28;20025;-57
2024/02/02 05:06:44;;;;;;;17.58;3.60;;;;;;;;;;5020841;28;20022;-58
2024/02/02 05:09:09;;;;;;;16.40;3.75;;;;;;;;;;5024598;28;20108;-58
2024/02/02 05:11:34;;;;;;;13.43;3.83;;;;;;;;;;5030435;28;20525;-57
2024/02/02 05:14:00;;;;;;;16.10;3.80;;;;;;;;;;5030563;28;20021;-55
2024/02/02 05:16:25;;;;;;;16.27;3.20;;;;;;;;;;5028634;28;20060;-58
2024/02/02 05:18:51;;;;;;;17.90;4.78;;;;;;;;;;5010989;28;20105;-58
2024/02/02 05:21:16;;;;;;;15.80;4.10;;;;;;;;;;5019408;28;20017;-57
2024/02/02 05:23:41;;;;;;;17.20;3.77;;;;;;;;;;5024767;28;20484;-57
2024/02/02 05:26:06;;;;;;;12.75;3.45;;;;;;;;;;5039004;28;20025;-58
2024/02/02 05:28:32;;;;;;;11.10;3.47;;;;;;;;;;5042194;28;20013;-56
2024/02/02 05:30:57;;;;;;;13.37;3.50;;;;;;;;;;5040862;28;20296;-56
2024/02/02 05:33:22;;;;;;;18.77;3.85;;;;;;;;;;5053545;28;20036;-57
2024/02/02 05:35:47;;;;;;;19.45;3.30;;;;;;;;;;5038810;28;20088;-63
2024/02/02 05:38:12;;;;;;;15.60;3.33;;;;;;;;;;5051338;28;20040;-56
2024/02/02 05:40:38;;;;;;;14.43;3.33;;;;;;;;;;5045717;28;20018;-56
2024/02/02 05:43:03;;;;;;;12.47;3.37;;;;;;;;;;5032112;28;20036;-56
2024/02/02 05:45:30;;;;;;;11.70;3.35;;;;;;;;;;5029877;28;20049;-58
2024/02/02 05:47:56;;;;;;;18.95;3.92;;;;;;;;;;5019288;28;20029;-56
2024/02/02 05:50:21;;;;;;;15.57;3.30;;;;;;;;;;5026233;28;20029;-59
2024/02/02 05:52:46;;;;;;;15.37;3.63;;;;;;;;;;5027338;28;20013;-58
2024/02/02 05:55:11;;;;;;;12.95;3.75;;;;;;;;;;5026326;28;20037;-56
2024/02/02 05:57:37;;;;;;;15.27;3.77;;;;;;;;;;5025296;28;20420;-57
2024/02/02 06:00:03;;;;;;;14.48;3.97;;;;;;;;;;5011860;28;20438;-57
2024/02/02 06:02:28;;;;;;;11.98;3.25;;;;;;;;;;5019688;28;20028;-58
2024/02/02 06:04:53;;;;;;;14.63;3.30;;;;;;;;;;5019470;28;20022;-58
2024/02/02 06:07:18;;;;;;;13.65;3.30;;;;;;;;;;5023142;28;20544;-57
2024/02/02 06:09:44;;;;;;;14.75;3.50;;;;;;;;;;5024572;28;20099;-57
2024/02/02 06:12:09;;;;;;;13.27;3.07;;;;;;;;;;5028979;28;20036;-57
2024/02/02 06:14:34;;;;;;;12.18;2.80;;;;;;;;;;5032079;28;20034;-57
2024/02/02 06:16:59;;;;;;;18.40;3.80;;;;;;;;;;5028798;28;20037;-57
2024/02/02 06:19:24;;;;;;;14.43;3.10;;;;;;;;;;5030245;28;20493;-57
2024/02/02 06:21:49;;;;;;;14.93;3.07;;;;;;;;;;5013372;28;20045;-57
2024/02/02 06:24:14;;;;;;;18.50;3.50;;;;;;;;;;5020989;28;20083;-57
2024/02/02 06:26:40;;;;;;;11.05;3.60;;;;;;;;;;5025751;28;20105;-58
2024/02/02 06:29:05;;;;;;;14.57;3.40;;;;;;;;;;5026807;28;20025;-57
2024/02/02 06:31:30;;;;;;;13.85;2.95;;;;;;;;;;5029671;28;20164;-57
2024/02/02 06:33:55;;;;;;;16.83;3.30;;;;;;;;;;5029606;28;20021;-57
2024/02/02 06:36:24;;;;;;;13.07;3.20;;;;;;;;;;5032435;28;20083;-56
2024/02/02 06:38:50;;;;;;;13.13;3.25;;;;;;;;;;5030988;28;20048;-56
2024/02/02 06:41:15;;;;;;;12.88;3.30;;;;;;;;;;5031577;28;20343;-55
2024/02/02 06:43:40;;;;;;;12.68;3.45;;;;;;;;;;5029577;28;20025;-54
2024/02/02 06:46:05;;;;;;;13.70;3.80;;;;;;;;;;5025656;28;20441;-55
2024/02/02 06:48:30;;;;;;;15.53;3.80;;;;;;;;;;5030595;28;20039;-55
2024/02/02 06:50:55;;;;;;;14.13;3.60;;;;;;;;;;5031159;28;20084;-56
2024/02/02 06:53:21;;;;;;;15.30;3.65;;;;;;;;;;5031290;28;20025;-56
2024/02/02 06:55:48;;;;;;;12.90;3.83;;;;;;;;;;5019721;28;20017;-55
2024/02/02 06:58:36;;;;;;;15.73;4.00;;;;;;;;;;5033042;28;20924;-57
2024/02/02 07:01:02;;;;;;;14.93;3.78;;;;;;;;;;5029089;28;20087;-58
2024/02/02 07:03:27;;;;;;;16.93;3.90;;;;;;;;;;5031564;28;20478;-57
2024/02/02 07:05:52;;;;;;;14.32;3.67;;;;;;;;;;5014712;28;20102;-56
2024/02/02 07:08:17;;;;;;;16.10;3.53;;;;;;;;;;5028794;28;20664;-58
2024/02/02 07:10:42;;;;;;;10.77;3.63;;;;;;;;;;5032685;28;20055;-56
2024/02/02 07:13:08;;;;;;;16.73;4.53;;;;;;;;;;5033815;28;20448;-56
2024/02/02 07:15:43;;;;;;;12.55;3.80;;;;;;;;;;5034577;28;20036;-56
2024/02/02 07:18:37;;;;;;;16.23;4.72;;;;;;;;;;5031859;28;20030;-56
2024/02/02 07:21:04;;;;;;;13.10;3.70;;;;;;;;;;5020593;28;20029;-56
2024/02/02 07:23:34;;;;;;;12.93;3.88;;;;;;;;;;5032177;28;20037;-56
2024/02/02 07:25:59;;;;;;;13.27;3.53;;;;;;;;;;5022845;28;20125;-56
2024/02/02 07:28:32;;;;;;;15.73;4.20;;;;;;;;;;5026013;28;20060;-56
2024/02/02 07:30:59;;;;;;;15.00;3.88;;;;;;;;;;5030188;28;20056;-56
2024/02/02 07:33:36;;;;;;;14.70;4.00;;;;;;;;;;5032488;28;20037;-56
2024/02/02 07:36:02;;;;;;;16.73;4.32;;;;;;;;;;5029440;28;20482;-57
2024/02/02 07:38:48;;;;;;;12.88;3.95;;;;;;;;;;5025102;28;20030;-56
2024/02/02 07:41:15;;;;;;;12.15;3.58;;;;;;;;;;5030696;28;20033;-56
2024/02/02 07:43:40;;;;;;;20.48;4.85;;;;;;;;;;5035749;28;20029;-56
2024/02/02 07:46:06;;;;;;;14.45;3.90;;;;;;;;;;5031050;28;20111;-56
2024/02/02 07:48:32;;;;;;;17.27;4.22;;;;;;;;;;5033415;28;20094;-57
2024/02/02 07:50:57;;;;;;;15.07;4.13;;;;;;;;;;5031643;28;20394;-57
2024/02/02 07:53:23;;;;;;;14.63;4.13;;;;;;;;;;5024535;28;20014;-57
2024/02/02 07:55:49;;;;;;;19.83;4.70;;;;;;;;;;5027685;28;20093;-56
2024/02/02 07:58:16;;;;;;;17.08;3.70;;;;;;;;;;5032993;28;20040;-56
2024/02/02 08:00:41;;;;;;;13.77;3.45;;;;;;;;;;5022958;28;20022;-56
2024/02/02 08:03:06;;;;;;;13.35;3.60;;;;;;;;;;5019892;28;20109;-55
2024/02/02 08:05:35;;;;;;;15.15;3.67;;;;;;;;;;5031969;28;20048;-57
2024/02/02 08:08:00;;;;;;;11.32;3.13;;;;;;;;;;5034033;28;20057;-56
2024/02/02 08:10:25;;;;;;;14.15;3.47;;;;;;;;;;5034255;28;20060;-57
2024/02/02 08:12:50;;;;;;;11.90;4.00;;;;;;;;;;5032705;28;20594;-57
2024/02/02 08:15:15;;;;;;;13.20;3.40;;;;;;;;;;5035422;28;20049;-56
2024/02/02 08:17:41;;;;;;;16.23;4.03;;;;;;;;;;5035854;28;20038;-58
2024/02/02 08:20:06;;;;;;;16.30;3.93;;;;;;;;;;5033283;28;20073;-56
2024/02/02 08:22:31;;;;;;;11.93;3.63;;;;;;;;;;5046156;28;20441;-58
2024/02/02 08:24:56;;;;;;;14.50;4.27;;;;;;;;;;5042562;28;20043;-57
2024/02/02 08:27:21;;;;;;;11.88;3.10;;;;;;;;;;5046547;28;20108;-56
2024/02/02 08:29:48;;;;;;;14.20;3.75;;;;;;;;;;5048077;28;20025;-57
2024/02/02 08:32:13;;;;;;;13.18;3.97;;;;;;;;;;5043775;28;20477;-56
2024/02/02 08:34:38;;;;;;;14.23;3.23;;;;;;;;;;5040697;28;20041;-57
2024/02/02 08:37:03;;;;;;;12.32;3.78;;;;;;;;;;5038506;28;20029;-57
2024/02/02 08:39:32;;;;;;;17.73;3.53;;;;;;;;;;5036567;28;20064;-57
2024/02/02 08:41:57;;;;;;;12.98;3.20;;;;;;;;;;5035679;28;20022;-55
2024/02/02 08:44:23;;;;;;;17.10;3.63;;;;;;;;;;5031990;28;20111;-57
2024/02/02 08:46:51;;;;;;;10.30;3.20;;;;;;;;;;5035574;28;20025;-58
2024/02/02 08:49:34;;;;;;;14.63;3.05;;;;;;;;;;5034746;28;20033;-56
2024/02/02 08:52:02;;;;;;;12.85;3.15;;;;;;;;;;5034913;28;20030;-56
2024/02/02 08:54:33;;;;;;;13.10;3.00;;;;;;;;;;5035131;28;20457;-57
2024/02/02 08:57:04;;;;;;;13.43;2.78;;;;;;;;;;5031372;28;20057;-56
2024/02/02 08:59:33;;;;;;;10.77;2.83;;;;;;;;;;5034944;28;20014;-57
2024/02/02 09:01:58;;;;;;;15.40;3.30;;;;;;;;;;5035205;28;20021;-56
2024/02/02 09:04:42;;;;;;;12.85;2.88;;;;;;;;;;5026987;28;20040;-57
2024/02/02 09:07:07;;;;;;;;;;;;;;;;;;5034990;28;20052;-57
2024/02/02 09:09:33;;;;;;;13.82;3.25;;;;;;;;;;5035490;28;19905;-58
2024/02/02 09:11:58;;;;;;;11.80;2.53;;;;;;;;;;5033351;28;20084;-56
2024/02/02 09:14:24;;;;;;;11.43;3.05;;;;;;;;;;5035903;28;20021;-57
2024/02/02 09:16:50;;;;;;;11.65;2.53;;;;;;;;;;5036167;28;20092;-57
2024/02/02 09:19:26;;;;;;;10.30;2.50;;;;;;;;;;5033722;28;20021;-56
2024/02/02 09:21:52;;;;;;;11.30;2.75;;;;;;;;;;5033541;28;20021;-56
2024/02/02 09:24:27;;;;;;;14.25;2.67;;;;;;;;;;5030290;28;20021;-57
2024/02/02 09:26:54;;;;;;;13.60;2.40;;;;;;;;;;5032322;28;20021;-58
2024/02/02 09:29:19;;;;;;;10.05;2.80;;;;;;;;;;5034165;28;20017;-57
2024/02/02 09:31:46;;;;;;;9.82;3.00;;;;;;;;;;5034476;28;20041;-56
2024/02/02 09:34:15;;;;;;;10.13;2.58;;;;;;;;;;5031972;28;20033;-57
2024/02/02 09:36:40;;;;;;;10.25;2.67;;;;;;;;;;5031189;28;20373;-56
2024/02/02 09:39:28;;;;;;;15.65;3.03;;;;;;;;;;5034524;28;20021;-57
2024/02/02 09:41:59;;;;;;;12.23;3.30;;;;;;;;;;5034110;28;20028;-57
2024/02/02 09:44:33;;;;;;;9.90;2.80;;;;;;;;;;5033748;28;20013;-58
2024/02/02 09:47:18;;;;;;;11.00;2.55;;;;;;;;;;5034429;28;20060;-57
2024/02/02 09:49:50;;;;;;;12.23;3.10;;;;;;;;;;5031462;28;20033;-57
2024/02/02 09:52:35;;;;;;;12.63;2.55;;;;;;;;;;5032593;28;20076;-56
2024/02/02 09:55:03;;;;;;;8.43;2.47;;;;;;;;;;5033649;28;20410;-57
2024/02/02 09:57:38;;;;;;;12.13;3.40;;;;;;;;;;5031925;28;20109;-57
2024/02/02 10:00:25;;;;;;;9.90;2.53;;;;;;;;;;5033269;28;20017;-57
2024/02/02 10:02:56;;;;;;;7.90;2.55;;;;;;;;;;5032994;28;20075;-57
2024/02/02 10:05:35;;;;;;;10.40;2.50;;;;;;;;;;5030731;28;20021;-58
2024/02/02 10:08:08;;;;;;;10.38;2.65;;;;;;;;;;5032982;28;20075;-56
2024/02/02 10:10:39;;;;;;;12.07;2.42;;;;;;;;;;5025871;28;20473;-59
2024/02/02 10:13:24;;;;;;;8.13;2.40;;;;;;;;;;5032625;28;20022;-56
2024/02/02 10:16:10;;;;;;;11.05;2.72;;;;;;;;;;5032627;28;20113;-55
2024/02/02 10:18:54;;;;;;;11.73;2.40;;;;;;;;;;5031858;28;20120;-56
2024/02/02 10:21:34;;;;;;;13.65;2.53;;;;;;;;;;5034108;28;20028;-56
2024/02/02 10:23:59;;;;;;;10.25;1.80;;;;;;;;;;5033748;28;20053;-57
2024/02/02 10:26:30;;;;;;;7.55;1.65;;;;;;;;;;5032123;28;20115;-57
2024/02/02 10:29:14;;;;;;;7.30;1.98;;;;;;;;;;5033307;28;20075;-55
2024/02/02 10:31:39;;;;;;;9.45;2.20;;;;;;;;;;5030832;28;20030;-57
2024/02/02 10:34:26;;;;;;;10.75;2.45;;;;;;;;;;5029345;28;20029;-57
2024/02/02 10:36:57;;;;;;;10.70;2.28;;;;;;;;;;5032476;28;20024;-57
2024/02/02 10:39:43;;;;;;;11.10;2.13;;;;;;;;;;5033456;28;20033;-57
2024/02/02 10:42:26;;;;;;;6.03;1.60;;;;;;;;;;5031772;28;20044;-56
2024/02/02 10:44:51;;;;;;;6.80;1.90;;;;;;;;;;5032831;28;20704;-57
2024/02/02 10:47:35;;;;;;;7.82;2.22;;;;;;;;;;5032375;28;20489;-55
2024/02/02 10:50:19;;;;;;;8.75;1.90;;;;;;;;;;5033099;28;20045;-56
2024/02/02 10:52:55;;;;;;;10.60;2.00;;;;;;;;;;5030469;28;20450;-57
2024/02/02 10:55:22;;;;;;;6.78;1.85;;;;;;;;;;5032538;28;20033;-56
2024/02/02 10:58:06;;;;;;;9.13;2.25;;;;;;;;;;5032181;28;20044;-58
2024/02/02 11:00:51;;;;;;;9.20;2.20;;;;;;;;;;5030987;28;20049;-56
2024/02/02 11:03:22;;;;;;;8.77;2.10;;;;;;;;;;5030440;28;20513;-58
2024/02/02 11:05:52;;;;;;;9.32;2.70;;;;;;;;;;5030983;28;20025;-58
2024/02/02 11:08:18;;;;;;;6.70;2.22;;;;;;;;;;5031832;28;20026;-57
2024/02/02 11:10:51;;;;;;;8.88;2.28;;;;;;;;;;5021357;28;20485;-56
2024/02/02 11:13:42;;;;;;;11.05;2.47;;;;;;;;;;5031374;28;20025;-57
2024/02/02 11:16:17;;;;;;;8.07;2.20;;;;;;;;;;5030881;28;20086;-57
2024/02/02 11:18:55;;;;;;;8.32;2.30;;;;;;;;;;5030455;28;20036;-56
2024/02/02 11:21:38;;;;;;;8.60;2.40;;;;;;;;;;5029513;28;20025;-56
2024/02/02 11:24:11;;;;;;;7.63;2.15;;;;;;;;;;5027980;28;20024;-56
2024/02/02 11:26:52;;;;;;;7.18;2.20;;;;;;;;;;5038131;28;20362;-57
2024/02/02 11:29:49;;;;;;;8.05;2.38;;;;;;;;;;5041983;28;20381;-58
2024/02/02 11:32:29;;;;;;;9.18;2.20;;;;;;;;;;5050946;28;20025;-57
2024/02/02 11:35:13;;;;;;;7.00;2.13;;;;;;;;;;5040770;28;20029;-56
2024/02/02 11:37:57;;;;;;;7.05;1.75;;;;;;;;;;5028242;28;20032;-58
2024/02/02 11:40:24;;;;;;;8.15;1.80;;;;;;;;;;5040720;28;20020;-57
2024/02/02 11:42:51;;;;;;;8.48;1.90;;;;;;;;;;5042940;28;20027;-59
2024/02/02 11:45:20;;;;;;;8.68;1.80;;;;;;;;;;5030325;28;20497;-57
2024/02/02 11:47:47;;;;;;;7.88;2.05;;;;;;;;;;5030613;28;20128;-56
2024/02/02 11:50:13;;;;;;;9.30;2.10;;;;;;;;;;5025347;28;20029;-57
2024/02/02 11:52:42;;;;;;;7.35;2.42;;;;;;;;;;5030824;28;20096;-56
2024/02/02 11:55:12;;;;;;;8.77;2.58;;;;;;;;;;5030875;28;20101;-56
2024/02/02 11:57:39;;;;;;;9.75;2.53;;;;;;;;;;5031887;28;20021;-56
2024/02/02 12:00:06;;;;;;;7.53;2.20;;;;;;;;;;5038922;28;20021;-57
2024/02/02 12:02:31;;;;;;;9.23;2.42;;;;;;;;;;5030585;28;20060;-57
2024/02/02 12:05:01;;;;;;;10.30;2.15;;;;;;;;;;5037387;28;20049;-57
2024/02/02 12:07:38;;;;;;;7.93;2.13;;;;;;;;;;5028972;28;20017;-56
2024/02/02 12:10:04;;;;;;;7.15;2.00;;;;;;;;;;5030477;28;20070;-57
2024/02/02 12:12:36;;;;;;;7.57;2.00;;;;;;;;;;5026698;28;20041;-57
2024/02/02 12:15:01;;;;;;;6.75;1.90;;;;;;;;;;5024091;28;20355;-57
2024/02/02 12:17:27;;;;;;;7.82;2.17;;;;;;;;;;5024696;28;20032;-58
2024/02/02 12:19:52;;;;;;;9.85;1.90;;;;;;;;;;5026284;28;20093;-58
2024/02/02 12:22:18;;;;;;;7.80;1.67;;;;;;;;;;5026613;28;20168;-56
2024/02/02 12:24:43;;;;;;;5.50;1.80;;;;;;;;;;5028001;28;20036;-58
2024/02/02 12:27:08;;;;;;;5.78;1.55;;;;;;;;;;5038535;28;20020;-57
2024/02/02 12:29:35;;;;;;;6.60;1.73;;;;;;;;;;5031451;28;20025;-56
2024/02/02 12:32:00;;;;;;;6.50;1.70;;;;;;;;;;5036992;28;20091;-58
2024/02/02 12:34:25;;;;;;;8.23;2.20;;;;;;;;;;5022354;28;20037;-57
2024/02/02 12:36:50;;;;;;;7.28;1.77;;;;;;;;;;5031005;28;20439;-56
2024/02/02 12:39:16;;;;;;;6.47;2.00;;;;;;;;;;5028888;28;20108;-57
2024/02/02 12:41:41;;;;;;;7.53;1.70;;;;;;;;;;5032378;28;20082;-57
2024/02/02 12:44:06;;;;;;;6.97;1.70;;;;;;;;;;5033995;28;20017;-57
2024/02/02 12:46:41;;;;;;;6.50;1.73;;;;;;;;;;5039170;28;20089;-57
2024/02/02 12:49:06;;;;;;;7.65;1.75;;;;;;;;;;5038349;28;20041;-57
2024/02/02 12:51:31;;;;;;;6.05;1.38;;;;;;;;;;5023750;28;20060;-58
2024/02/02 12:53:57;;;;;;;6.43;1.35;;;;;;;;;;5030013;28;20030;-57
2024/02/02 12:56:22;;;;;;;6.20;1.20;;;;;;;;;;5032467;28;20022;-58
2024/02/02 12:58:47;;;;;;;6.57;1.40;;;;;;;;;;5034195;28;20072;-57
2024/02/02 13:01:13;;;;;;;6.10;1.58;;;;;;;;;;5036725;28;20134;-56
2024/02/02 13:03:38;;;;;;;5.83;1.17;;;;;;;;;;5025677;28;20492;-57
2024/02/02 13:06:04;;;;;;;6.43;1.38;;;;;;;;;;5035308;28;20020;-57
2024/02/02 13:08:30;;;;;;;5.47;1.20;;;;;;;;;;5036644;28;20442;-57
2024/02/02 13:10:56;;;;;;;7.00;1.23;;;;;;;;;;5041463;28;20509;-56
2024/02/02 13:13:21;;;;;;;;;;;;;;;;;;5032888;28;21736;-56
2024/02/02 13:15:47;;;;;;;7.93;1.20;;;;;;;;;;5037493;28;20270;-58
2024/02/02 13:18:12;;;;;;;4.72;0.93;;;;;;;;;;5032578;28;20041;-56
2024/02/02 13:20:38;;;;;;;4.82;1.20;;;;;;;;;;5032426;28;20013;-57
2024/02/02 13:23:10;;;;;;;6.22;1.63;;;;;;;;;;5033513;28;20013;-57
2024/02/02 13:25:39;;;;;;;7.10;1.30;;;;;;;;;;5028493;28;20033;-58
2024/02/02 13:28:05;;;;;;;8.23;1.38;;;;;;;;;;5029591;28;20022;-56
2024/02/02 13:30:31;;;;;;;7.18;1.60;;;;;;;;;;5033681;28;20023;-57
2024/02/02 13:33:03;;;;;;;6.43;1.20;;;;;;;;;;5031240;28;20017;-56
2024/02/02 13:35:31;;;;;;;6.88;1.13;;;;;;;;;;5033368;28;20017;-57
2024/02/02 13:37:56;;;;;;;6.47;1.20;;;;;;;;;;5032225;28;20028;-56
2024/02/02 13:40:27;;;;;;;5.27;1.10;;;;;;;;;;5032928;28;20029;-58
2024/02/02 13:42:53;;;;;;;5.32;1.10;;;;;;;;;;5031052;28;21253;-57
2024/02/02 13:45:19;;;;;;;5.65;1.00;;;;;;;;;;5033016;28;20022;-57
2024/02/02 13:47:52;;;;;;;8.05;1.30;;;;;;;;;;5032904;28;20025;-58
2024/02/02 13:50:29;;;;;;;8.10;1.20;;;;;;;;;;5026273;28;20017;-58
2024/02/02 13:52:55;;;;;;;9.05;1.60;;;;;;;;;;5025885;28;20021;-57
2024/02/02 13:55:20;;;;;;;7.70;1.52;;;;;;;;;;5027107;28;20513;-57
2024/02/02 13:57:45;;;;;;;7.80;1.90;;;;;;;;;;5031404;28;20532;-57
2024/02/02 14:00:13;;;;;;;6.80;1.10;;;;;;;;;;5034110;28;20991;-56
2024/02/02 14:02:38;;;;;;;8.52;1.50;;;;;;;;;;5029620;28;20029;-56
2024/02/02 14:05:05;;;;;;;8.38;1.58;;;;;;;;;;5031206;28;20018;-57
2024/02/02 14:07:30;;;;;;;7.40;1.38;;;;;;;;;;5021510;28;20030;-58
2024/02/02 14:10:06;;;;;;;5.47;1.20;;;;;;;;;;5030886;28;20040;-57
2024/02/02 14:12:37;;;;;;;7.70;1.35;;;;;;;;;;5031812;28;20030;-58
2024/02/02 14:15:03;;;;;;;8.40;1.42;;;;;;;;;;5028127;28;20503;-57
2024/02/02 14:17:28;;;;;;;5.93;1.30;;;;;;;;;;5030654;28;20029;-57
2024/02/02 14:20:00;;;;;;;5.83;1.20;;;;;;;;;;5030495;28;20053;-57
2024/02/02 14:22:25;;;;;;;7.75;1.40;;;;;;;;;;5032034;28;20041;-58
2024/02/02 14:24:51;;;;;;;6.33;0.90;;;;;;;;;;5032324;28;20029;-57
2024/02/02 14:27:16;;;;;;;7.07;1.33;;;;;;;;;;5023496;28;20441;-57
2024/02/02 14:29:43;;;;;;;6.87;1.20;;;;;;;;;;5045803;28;20508;-56
2024/02/02 14:32:08;;;;;;;6.55;1.30;;;;;;;;;;5041217;28;20447;-58
2024/02/02 14:34:33;;;;;;;6.75;1.33;;;;;;;;;;5043637;28;20121;-57
2024/02/02 14:36:58;;;;;;;4.70;1.10;;;;;;;;;;5035753;28;20544;-58
2024/02/02 14:39:25;;;;;;;6.90;1.20;;;;;;;;;;5032130;28;20041;-59